createdAt,value
2023-03-08T00:01:24.387Z,14.40
2023-03-08T00:04:14.402Z,11.93
2023-03-08T00:07:02.950Z,12.47
2023-03-08T00:09:51.504Z,11.03
2023-03-08T00:12:40.073Z,11.77
2023-03-08T00:15:28.607Z,12.43
2023-03-08T00:18:17.084Z,17.93
2023-03-08T00:21:08.620Z,13.13
2023-03-08T00:23:57.090Z,13.70
2023-03-08T00:26:45.721Z,12.00
2023-03-08T00:29:34.232Z,10.67
2023-03-08T00:32:22.771Z,14.57
2023-03-08T00:35:11.286Z,13.60
2023-03-08T00:38:01.100Z,15.27
2023-03-08T00:40:49.583Z,15.13
2023-03-08T00:43:38.111Z,12.77
2023-03-08T00:46:27.272Z,16.07
2023-03-08T00:49:15.753Z,14.90
2023-03-08T00:52:04.348Z,14.60
2023-03-08T00:54:54.174Z,10.80
2023-03-08T00:57:43.147Z,12.13
2023-03-08T01:00:32.089Z,14.80
2023-03-08T01:03:21.754Z,16.07
2023-03-08T01:06:12.778Z,12.87
2023-03-08T01:09:01.816Z,25.13
2023-03-08T01:11:51.658Z,11.57
2023-03-08T01:14:40.097Z,13.20
2023-03-08T01:17:28.649Z,12.47
2023-03-08T01:20:17.218Z,13.10
2023-03-08T01:23:05.745Z,13.10
2023-03-08T01:26:01.003Z,11.63
2023-03-08T01:28:51.332Z,10.77
2023-03-08T01:31:39.827Z,15.87
2023-03-08T01:34:28.338Z,13.53
2023-03-08T01:37:16.857Z,13.83
2023-03-08T01:40:06.442Z,12.10
2023-03-08T01:42:54.949Z,10.83
2023-03-08T01:46:19.171Z,14.90
2023-03-08T01:49:09.607Z,13.83
2023-03-08T01:52:01.724Z,12.33
2023-03-08T01:54:52.126Z,15.53
2023-03-08T01:57:43.520Z,13.20
2023-03-08T02:00:32.079Z,10.83
2023-03-08T02:03:21.980Z,14.87
2023-03-08T02:06:10.970Z,13.57
2023-03-08T02:09:03.388Z,12.07
2023-03-08T02:11:51.907Z,13.70
2023-03-08T02:14:40.922Z,14.10
2023-03-08T02:17:30.116Z,10.63
2023-03-08T02:20:24.128Z,12.03
2023-03-08T02:23:15.764Z,14.43
2023-03-08T02:26:05.879Z,14.10
2023-03-08T02:28:54.343Z,18.50
2023-03-08T02:31:42.877Z,13.60
2023-03-08T02:34:31.423Z,13.57
2023-03-08T02:37:19.924Z,10.93
2023-03-08T02:40:12.269Z,14.70
2023-03-08T02:43:00.766Z,10.73
2023-03-08T02:45:49.617Z,13.37
2023-03-08T02:48:38.053Z,14.27
2023-03-08T02:51:26.509Z,13.70
2023-03-08T02:54:16.924Z,12.70
2023-03-08T02:57:07.098Z,12.27
2023-03-08T02:59:55.561Z,12.70
2023-03-08T03:02:44.043Z,13.57
2023-03-08T03:05:32.489Z,13.53
2023-03-08T03:08:21.001Z,11.57
2023-03-08T03:11:13.167Z,12.47
2023-03-08T03:14:03.308Z,10.77
2023-03-08T03:16:51.747Z,11.57
2023-03-08T03:19:40.233Z,10.73
2023-03-08T03:22:29.044Z,13.63
2023-03-08T03:25:17.628Z,11.30
2023-03-08T03:28:06.291Z,11.00
2023-03-08T03:30:56.088Z,12.90
2023-03-08T03:33:44.952Z,11.00
2023-03-08T03:36:34.416Z,10.37
2023-03-08T03:39:23.180Z,10.53
2023-03-08T03:42:11.726Z,11.87
2023-03-08T03:45:00.192Z,11.43
2023-03-08T03:47:50.048Z,11.03
2023-03-08T03:50:38.521Z,11.30
2023-03-08T03:53:29.024Z,10.43
2023-03-08T03:56:19.587Z,13.33
2023-03-08T03:59:08.129Z,10.00
2023-03-08T04:01:56.655Z,10.13
2023-03-08T04:04:46.638Z,13.50
2023-03-08T04:07:35.123Z,12.00
2023-03-08T04:10:23.675Z,12.20
2023-03-08T04:13:12.647Z,13.73
2023-03-08T04:16:01.191Z,13.07
2023-03-08T04:18:50.016Z,11.83
2023-03-08T04:21:39.885Z,11.40
2023-03-08T04:24:28.415Z,12.53
2023-03-08T04:27:16.934Z,14.80
2023-03-08T04:30:06.455Z,16.87
2023-03-08T04:32:55.061Z,10.27
2023-03-08T04:35:43.595Z,14.87
2023-03-08T04:38:33.534Z,13.40
2023-03-08T04:41:22.219Z,12.40
2023-03-08T04:44:10.757Z,13.07
2023-03-08T04:46:59.373Z,10.53
2023-03-08T04:49:47.886Z,11.57
2023-03-08T04:52:36.360Z,12.77
2023-03-08T04:55:26.243Z,11.40
2023-03-08T04:58:14.794Z,11.00
2023-03-08T05:01:10.471Z,10.53
2023-03-08T05:03:58.958Z,10.67
2023-03-08T05:06:47.425Z,11.10
2023-03-08T05:09:35.915Z,10.47
2023-03-08T05:12:25.861Z,14.13
2023-03-08T05:15:14.410Z,12.47
2023-03-08T05:18:02.908Z,11.03
2023-03-08T05:20:55.787Z,13.13
2023-03-08T05:23:44.486Z,13.40
2023-03-08T05:26:33.069Z,16.60
2023-03-08T05:29:23.033Z,14.63
2023-03-08T05:32:12.779Z,12.10
2023-03-08T05:35:01.352Z,10.50
2023-03-08T05:37:49.892Z,8.80
2023-03-08T05:40:38.967Z,13.33
2023-03-08T05:43:27.522Z,10.63
2023-03-08T05:46:18.885Z,10.23
2023-03-08T05:49:07.648Z,9.90
2023-03-08T05:51:56.110Z,9.27
2023-03-08T05:54:44.601Z,9.63
2023-03-08T05:57:33.122Z,13.37
2023-03-08T06:00:22.298Z,11.03
2023-03-08T06:03:12.212Z,11.30
2023-03-08T06:06:00.691Z,13.40
2023-03-08T06:08:49.282Z,10.30
2023-03-08T06:11:37.758Z,14.37
2023-03-08T06:14:26.569Z,14.77
2023-03-08T06:17:15.350Z,13.33
2023-03-08T06:20:05.657Z,10.07
2023-03-08T06:22:54.136Z,12.40
2023-03-08T06:25:44.451Z,15.10
2023-03-08T06:28:33.321Z,16.50
2023-03-08T06:31:21.777Z,12.93
2023-03-08T06:34:10.267Z,12.60
2023-03-08T06:37:00.476Z,15.43
2023-03-08T06:39:49.050Z,13.73
2023-03-08T06:42:41.491Z,16.00
2023-03-08T06:45:30.305Z,14.40
2023-03-08T06:48:18.953Z,15.13
2023-03-08T06:51:07.935Z,14.37
2023-03-08T06:53:57.768Z,17.17
2023-03-08T06:56:47.019Z,13.70
2023-03-08T06:59:35.509Z,16.13
2023-03-08T07:02:23.943Z,16.17
2023-03-08T07:05:12.381Z,14.77
2023-03-08T07:08:01.147Z,27.27
2023-03-08T07:10:51.089Z,14.53
2023-03-08T07:13:39.658Z,17.57
2023-03-08T07:16:28.559Z,18.27
2023-03-08T07:19:16.998Z,14.97
2023-03-08T07:22:05.734Z,18.80
2023-03-08T07:24:54.224Z,16.47
2023-03-08T07:27:44.339Z,19.10
2023-03-08T07:30:32.856Z,16.60
2023-03-08T07:33:22.265Z,16.40
2023-03-08T07:36:11.002Z,15.07
2023-03-08T07:38:59.526Z,16.50
2023-03-08T07:41:48.025Z,15.27
2023-03-08T07:44:38.109Z,15.73
2023-03-08T07:47:26.649Z,16.07
2023-03-08T07:50:15.106Z,16.43
2023-03-08T07:53:04.397Z,18.33
2023-03-08T07:55:52.864Z,18.07
2023-03-08T07:58:41.429Z,17.47
2023-03-08T08:01:32.999Z,13.57
2023-03-08T08:04:23.195Z,18.33
2023-03-08T08:07:13.620Z,11.73
2023-03-08T08:10:02.225Z,13.70
2023-03-08T08:12:50.759Z,15.47
2023-03-08T08:15:39.254Z,13.97
2023-03-08T08:18:29.387Z,19.77
2023-03-08T08:21:17.988Z,20.07
2023-03-08T08:24:07.268Z,19.80
2023-03-08T08:26:55.870Z,14.70
2023-03-08T08:29:46.078Z,19.70
2023-03-08T08:32:35.259Z,16.17
2023-03-08T08:35:37.268Z,17.37
2023-03-08T08:38:30.781Z,17.43
2023-03-08T08:41:21.723Z,18.73
2023-03-08T08:44:10.296Z,23.03
2023-03-08T08:46:58.838Z,18.13
2023-03-08T08:49:47.349Z,19.63
2023-03-08T08:52:37.270Z,19.57
2023-03-08T08:55:25.872Z,19.30
2023-03-08T08:58:14.571Z,16.50
2023-03-08T09:01:03.075Z,20.60
2023-03-08T09:03:51.861Z,20.00
2023-03-08T09:06:41.050Z,28.83
2023-03-08T09:09:30.907Z,20.50
2023-03-08T09:12:21.072Z,17.37
2023-03-08T09:15:11.552Z,18.70
2023-03-08T09:18:00.294Z,21.93
2023-03-08T09:20:48.831Z,22.97
2023-03-08T09:23:37.310Z,17.80
2023-03-08T09:26:27.173Z,20.47
2023-03-08T09:29:15.671Z,20.83
2023-03-08T09:32:04.351Z,18.43
2023-03-08T09:34:52.916Z,19.37
2023-03-08T09:37:41.474Z,25.00
2023-03-08T09:40:30.716Z,19.83
2023-03-08T09:43:25.359Z,18.73
2023-03-08T09:46:15.158Z,25.20
2023-03-08T09:49:05.055Z,22.57
2023-03-08T09:52:01.458Z,21.33
2023-03-08T09:54:51.377Z,24.57
2023-03-08T09:57:45.061Z,27.20
2023-03-08T10:00:37.664Z,21.50
2023-03-08T10:03:55.063Z,22.73
2023-03-08T10:06:49.284Z,25.60
2023-03-08T10:09:41.654Z,26.50
2023-03-08T10:12:37.937Z,18.27
2023-03-08T10:15:27.886Z,23.10
2023-03-08T10:18:22.539Z,24.63
2023-03-08T10:21:12.639Z,21.87
2023-03-08T10:24:05.065Z,23.70
2023-03-08T10:26:54.395Z,23.30
2023-03-08T10:29:49.889Z,22.83
2023-03-08T10:32:43.550Z,23.77
2023-03-08T10:35:37.490Z,23.50
2023-03-08T10:38:28.970Z,24.03
2023-03-08T10:41:18.437Z,19.63
2023-03-08T10:44:07.435Z,22.53
2023-03-08T10:46:55.912Z,23.63
2023-03-08T10:49:45.155Z,25.27
2023-03-08T10:52:35.415Z,28.10
2023-03-08T10:55:28.177Z,23.87
2023-03-08T10:58:35.147Z,22.33
2023-03-08T11:01:26.914Z,24.23
2023-03-08T11:04:17.469Z,20.87
2023-03-08T11:07:23.468Z,25.43
2023-03-08T11:10:18.973Z,21.70
2023-03-08T11:13:14.338Z,17.80
2023-03-08T11:16:46.876Z,15.30
2023-03-08T11:19:47.013Z,15.57
2023-03-08T11:22:57.795Z,13.30
2023-03-08T11:25:49.792Z,11.77
2023-03-08T11:28:51.119Z,9.83
2023-03-08T11:31:45.577Z,12.30
2023-03-08T11:34:47.239Z,9.87
2023-03-08T11:37:40.969Z,10.40
2023-03-08T11:40:31.217Z,10.13
2023-03-08T11:43:32.212Z,10.77
2023-03-08T11:46:23.854Z,8.60
2023-03-08T11:49:38.118Z,8.07
2023-03-08T11:52:31.416Z,7.73
2023-03-08T11:55:47.492Z,8.00
2023-03-08T11:58:40.279Z,7.00
2023-03-08T12:01:32.054Z,4.73
2023-03-08T12:04:23.057Z,3.33
2023-03-08T12:07:17.772Z,4.50
2023-03-08T12:10:17.266Z,3.67
2023-03-08T12:13:11.750Z,3.37
2023-03-08T12:16:09.175Z,2.90
2023-03-08T12:19:02.469Z,3.30
2023-03-08T12:21:56.318Z,2.57
2023-03-08T12:24:48.810Z,2.77
2023-03-08T12:27:42.448Z,3.40
2023-03-08T12:30:40.307Z,3.03
2023-03-08T12:33:32.411Z,3.00
2023-03-08T12:36:22.467Z,3.07
2023-03-08T12:39:26.729Z,1.90
2023-03-08T12:42:17.315Z,2.90
2023-03-08T12:45:28.017Z,2.73
2023-03-08T12:48:23.860Z,2.00
2023-03-08T12:51:23.920Z,4.90
2023-03-08T12:54:22.870Z,2.20
2023-03-08T12:57:22.707Z,2.00
2023-03-08T13:00:26.173Z,2.37
2023-03-08T13:03:28.250Z,1.70
2023-03-08T13:06:34.371Z,3.30
2023-03-08T13:09:26.784Z,2.30
2023-03-08T13:12:29.319Z,1.90
2023-03-08T13:15:24.211Z,2.20
2023-03-08T13:18:16.360Z,2.07
2023-03-08T13:21:18.374Z,1.57
2023-03-08T13:24:14.664Z,2.10
2023-03-08T13:27:17.734Z,1.70
2023-03-08T13:30:19.945Z,2.90
2023-03-08T13:33:10.656Z,1.90
2023-03-08T13:36:01.027Z,1.67
2023-03-08T13:39:00.519Z,2.03
2023-03-08T13:41:50.359Z,1.73
2023-03-08T13:44:38.960Z,2.37
2023-03-08T13:47:31.450Z,1.80
2023-03-08T13:50:22.304Z,2.30
2023-03-08T13:53:16.676Z,1.80
2023-03-08T13:56:06.818Z,3.87
2023-03-08T13:58:58.841Z,2.93
2023-03-08T14:01:52.274Z,4.03
2023-03-08T14:04:43.820Z,2.30
2023-03-08T14:07:33.068Z,2.17
2023-03-08T14:10:24.407Z,6.10
2023-03-08T14:13:18.181Z,5.43
2023-03-08T14:16:09.505Z,2.80
2023-03-08T14:18:59.095Z,2.47
2023-03-08T14:21:49.697Z,2.80
2023-03-08T14:24:38.269Z,4.70
2023-03-08T14:27:34.754Z,3.90
2023-03-08T14:30:24.978Z,3.60
2023-03-08T14:33:28.271Z,2.13
2023-03-08T14:36:22.017Z,3.70
2023-03-08T14:39:18.482Z,2.10
2023-03-08T14:42:12.507Z,2.20
2023-03-08T14:45:04.036Z,2.73
2023-03-08T14:47:55.570Z,2.40
2023-03-08T14:50:57.382Z,2.00
2023-03-08T14:53:57.283Z,2.00
2023-03-08T14:56:46.838Z,2.00
2023-03-08T14:59:35.352Z,2.03
2023-03-08T15:02:23.830Z,2.27
2023-03-08T15:05:28.021Z,1.77
2023-03-08T15:08:19.661Z,2.23
2023-03-08T15:11:08.228Z,1.90
2023-03-08T15:13:56.700Z,2.27
2023-03-08T15:16:45.350Z,3.27
2023-03-08T15:19:33.837Z,2.73
2023-03-08T15:22:22.485Z,3.13
2023-03-08T15:25:17.368Z,3.20
2023-03-08T15:28:06.913Z,2.63
2023-03-08T15:30:55.524Z,3.10
2023-03-08T15:33:43.948Z,2.40
2023-03-08T15:36:35.491Z,2.23
2023-03-08T15:39:24.376Z,1.93
2023-03-08T15:42:14.313Z,2.83
2023-03-08T15:45:02.779Z,3.50
2023-03-08T15:47:58.409Z,2.73
2023-03-08T15:50:47.561Z,1.90
2023-03-08T15:53:36.374Z,2.63
2023-03-08T15:56:25.661Z,2.70
2023-03-08T15:59:15.465Z,2.73
2023-03-08T16:02:04.160Z,2.73
2023-03-08T16:04:55.746Z,2.10
2023-03-08T16:07:44.470Z,15.07
2023-03-08T16:10:40.208Z,1.87
2023-03-08T16:13:28.777Z,3.60
2023-03-08T16:16:19.124Z,1.90
2023-03-08T16:19:07.616Z,2.70
2023-03-08T16:21:56.080Z,2.60
2023-03-08T16:24:44.598Z,2.40
2023-03-08T16:27:35.065Z,2.20
2023-03-08T16:30:24.511Z,2.33
2023-03-08T16:33:15.417Z,2.83
2023-03-08T16:36:05.525Z,2.60
2023-03-08T16:38:56.283Z,2.67
2023-03-08T16:41:45.133Z,2.07
2023-03-08T16:44:33.793Z,1.90
2023-03-08T16:47:23.228Z,2.00
2023-03-08T16:50:14.517Z,1.90
2023-03-08T16:53:03.230Z,3.20
2023-03-08T16:55:52.535Z,1.80
2023-03-08T16:58:41.072Z,2.67
2023-03-08T17:01:29.939Z,2.20
2023-03-08T17:04:19.423Z,7.93
2023-03-08T17:07:10.187Z,3.40
2023-03-08T17:09:58.991Z,2.13
2023-03-08T17:12:48.055Z,2.77
2023-03-08T17:15:40.782Z,1.97
2023-03-08T17:18:29.373Z,1.90
2023-03-08T17:21:18.610Z,2.00
2023-03-08T17:24:10.457Z,1.80
2023-03-08T17:26:59.599Z,1.70
2023-03-08T17:29:48.100Z,1.70
2023-03-08T17:32:36.715Z,1.70
2023-03-08T17:35:25.739Z,2.10
2023-03-08T17:38:14.284Z,1.90
2023-03-08T17:41:07.412Z,1.57
2023-03-08T17:43:55.934Z,1.60
2023-03-08T17:46:44.473Z,2.10
2023-03-08T17:49:34.368Z,3.63
2023-03-08T17:52:22.852Z,1.97
2023-03-08T17:55:11.996Z,1.60
2023-03-08T17:58:01.930Z,2.63
2023-03-08T18:00:51.591Z,1.60
2023-03-08T18:03:41.323Z,1.40
2023-03-08T18:06:31.273Z,1.33
2023-03-08T18:09:19.880Z,1.43
2023-03-08T18:12:09.823Z,1.30
2023-03-08T18:15:01.190Z,1.40
2023-03-08T18:17:50.153Z,2.27
2023-03-08T18:20:38.609Z,1.70
2023-03-08T18:23:29.546Z,2.23
2023-03-08T18:26:18.867Z,2.50
2023-03-08T18:29:07.660Z,1.70
2023-03-08T18:31:57.630Z,3.83
2023-03-08T18:34:47.534Z,2.00
2023-03-08T18:37:36.318Z,1.87
2023-03-08T18:40:26.906Z,2.17
2023-03-08T18:43:15.359Z,2.33
2023-03-08T18:46:03.861Z,1.90
2023-03-08T18:48:53.718Z,1.87
2023-03-08T18:51:43.022Z,1.70
2023-03-08T18:54:31.932Z,2.00
2023-03-08T18:57:20.561Z,2.10
2023-03-08T19:00:11.850Z,1.80
2023-03-08T19:03:00.356Z,2.00
2023-03-08T19:05:50.401Z,2.33
2023-03-08T19:08:39.123Z,2.57
2023-03-08T19:11:28.528Z,1.90
2023-03-08T19:14:18.580Z,2.37
2023-03-08T19:17:07.249Z,2.07
2023-03-08T19:19:56.053Z,1.70
2023-03-08T19:22:47.098Z,2.83
2023-03-08T19:25:58.031Z,1.60
2023-03-08T19:28:46.468Z,2.23
2023-03-08T19:31:40.033Z,2.60
2023-03-08T19:34:29.725Z,4.80
2023-03-08T19:37:18.420Z,7.00
2023-03-08T19:40:09.924Z,2.77
2023-03-08T19:42:58.542Z,2.63
2023-03-08T19:45:49.713Z,3.27
2023-03-08T19:48:38.546Z,2.47
2023-03-08T19:51:27.101Z,3.50
2023-03-08T19:54:15.766Z,4.60
2023-03-08T19:57:08.303Z,2.57
2023-03-08T19:59:57.825Z,4.40
2023-03-08T20:02:46.663Z,3.00
2023-03-08T20:05:41.609Z,3.00
2023-03-08T20:08:30.197Z,4.87
2023-03-08T20:11:18.704Z,2.23
2023-03-08T20:14:09.035Z,3.03
2023-03-08T20:16:59.040Z,3.30
2023-03-08T20:19:47.636Z,3.00
2023-03-08T20:22:36.121Z,4.00
2023-03-08T20:25:24.671Z,3.07
2023-03-08T20:28:13.506Z,2.37
2023-03-08T20:31:09.154Z,2.60
2023-03-08T20:33:57.929Z,2.20
2023-03-08T20:36:47.521Z,4.67
2023-03-08T20:39:36.208Z,2.80
2023-03-08T20:42:24.876Z,2.87
2023-03-08T20:45:13.552Z,4.13
2023-03-08T20:48:06.217Z,4.87
2023-03-08T20:50:59.244Z,4.70
2023-03-08T20:53:51.072Z,3.13
2023-03-08T20:56:39.711Z,3.97
2023-03-08T20:59:28.864Z,3.40
2023-03-08T21:02:17.695Z,2.53
2023-03-08T21:05:08.719Z,3.40
2023-03-08T21:07:57.502Z,3.47
2023-03-08T21:10:48.997Z,4.00
2023-03-08T21:13:40.000Z,4.50
2023-03-08T21:16:29.695Z,2.33
2023-03-08T21:19:18.572Z,3.63
2023-03-08T21:22:10.641Z,3.20
2023-03-08T21:24:59.461Z,2.30
2023-03-08T21:27:47.967Z,2.40
2023-03-08T21:30:36.428Z,3.30
2023-03-08T21:33:24.965Z,2.43
2023-03-08T21:36:13.550Z,2.47
2023-03-08T21:39:03.412Z,3.13
2023-03-08T21:41:53.014Z,4.40
2023-03-08T21:44:41.687Z,2.90
2023-03-08T21:47:30.220Z,4.10
2023-03-08T21:50:18.842Z,3.07
2023-03-08T21:53:07.618Z,2.67
2023-03-08T21:55:57.528Z,3.10
2023-03-08T21:58:46.567Z,5.13
2023-03-08T22:01:35.306Z,3.23
2023-03-08T22:04:24.338Z,3.17
2023-03-08T22:07:12.880Z,3.87
2023-03-08T22:10:01.297Z,3.30
2023-03-08T22:12:51.132Z,4.10
2023-03-08T22:15:39.765Z,4.57
2023-03-08T22:18:28.302Z,3.40
2023-03-08T22:21:16.832Z,3.97
2023-03-08T22:24:06.090Z,7.20
2023-03-08T22:26:54.626Z,5.50
2023-03-08T22:29:44.528Z,3.27
2023-03-08T22:32:33.006Z,4.40
2023-03-08T22:35:22.164Z,4.37
2023-03-08T22:38:10.614Z,2.87
2023-03-08T22:40:59.079Z,3.53
2023-03-08T22:43:48.097Z,5.40
2023-03-08T22:46:37.948Z,5.13
2023-03-08T22:49:26.488Z,8.80
2023-03-08T22:52:14.956Z,4.80
2023-03-08T22:55:04.035Z,3.17
2023-03-08T22:57:52.531Z,6.13
2023-03-08T23:00:41.016Z,3.03
2023-03-08T23:03:31.591Z,5.03
2023-03-08T23:06:21.968Z,4.87
2023-03-08T23:09:12.706Z,5.43
2023-03-08T23:12:04.867Z,4.33
2023-03-08T23:14:53.373Z,7.60
2023-03-08T23:17:41.834Z,4.67
2023-03-08T23:20:31.731Z,2.87
2023-03-08T23:23:20.461Z,2.90
2023-03-08T23:26:11.530Z,4.77
2023-03-08T23:29:03.147Z,4.13
2023-03-08T23:31:51.738Z,3.43
2023-03-08T23:34:41.996Z,2.33
2023-03-08T23:37:31.764Z,5.23
2023-03-08T23:40:20.487Z,3.73
2023-03-08T23:43:08.956Z,4.20
2023-03-08T23:45:57.518Z,5.60
2023-03-08T23:48:47.158Z,3.93
2023-03-08T23:51:35.670Z,6.40
2023-03-08T23:54:25.524Z,2.60
2023-03-08T23:57:14.175Z,4.27
